sensor_id;sensor_type;location;lat;lon;timestamp;temperature;humidity
2487;DHT22;1254;49.144;8.212;2022-12-20T00:01:15;2.10;99.90
2487;DHT22;1254;49.144;8.212;2022-12-20T00:03:48;2.10;99.90
2487;DHT22;1254;49.144;8.212;2022-12-20T00:06:16;2.10;99.90
2487;DHT22;1254;49.144;8.212;2022-12-20T00:08:45;2.10;99.90
2487;DHT22;1254;49.144;8.212;2022-12-20T00:11:13;2.20;99.90
2487;DHT22;1254;49.144;8.212;2022-12-20T00:13:41;2.20;99.90
2487;DHT22;1254;49.144;8.212;2022-12-20T00:16:16;2.20;99.90
2487;DHT22;1254;49.144;8.212;2022-12-20T00:18:44;2.20;99.90
2487;DHT22;1254;49.144;8.212;2022-12-20T00:21:13;2.30;99.90
2487;DHT22;1254;49.144;8.212;2022-12-20T00:23:41;2.30;99.90
2487;DHT22;1254;49.144;8.212;2022-12-20T00:26:11;2.30;99.90
2487;DHT22;1254;49.144;8.212;2022-12-20T00:28:40;2.40;99.90
2487;DHT22;1254;49.144;8.212;2022-12-20T00:31:10;2.30;99.90
2487;DHT22;1254;49.144;8.212;2022-12-20T00:33:39;2.30;99.90
2487;DHT22;1254;49.144;8.212;2022-12-20T00:36:09;2.40;99.90
2487;DHT22;1254;49.144;8.212;2022-12-20T00:38:38;2.40;99.90
2487;DHT22;1254;49.144;8.212;2022-12-20T00:41:08;2.40;99.90
2487;DHT22;1254;49.144;8.212;2022-12-20T00:43:37;2.40;99.90
2487;DHT22;1254;49.144;8.212;2022-12-20T00:46:06;2.30;99.90
2487;DHT22;1254;49.144;8.212;2022-12-20T00:48:35;2.30;99.90
2487;DHT22;1254;49.144;8.212;2022-12-20T00:51:04;2.30;99.90
2487;DHT22;1254;49.144;8.212;2022-12-20T00:53:33;2.30;99.90
2487;DHT22;1254;49.144;8.212;2022-12-20T00:56:04;2.30;99.90
2487;DHT22;1254;49.144;8.212;2022-12-20T00:58:34;2.30;99.90
2487;DHT22;1254;49.144;8.212;2022-12-20T01:01:03;2.30;99.90
2487;DHT22;1254;49.144;8.212;2022-12-20T01:03:31;2.30;99.90
2487;DHT22;1254;49.144;8.212;2022-12-20T01:06:00;2.30;99.90
2487;DHT22;1254;49.144;8.212;2022-12-20T01:08:29;2.30;99.90
2487;DHT22;1254;49.144;8.212;2022-12-20T01:10:59;2.30;99.90
2487;DHT22;1254;49.144;8.212;2022-12-20T01:13:29;2.30;99.90
2487;DHT22;1254;49.144;8.212;2022-12-20T01:16:03;2.30;99.90
2487;DHT22;1254;49.144;8.212;2022-12-20T01:18:32;2.30;99.90
2487;DHT22;1254;49.144;8.212;2022-12-20T01:21:01;2.40;99.90
2487;DHT22;1254;49.144;8.212;2022-12-20T01:23:29;2.40;99.90
2487;DHT22;1254;49.144;8.212;2022-12-20T01:25:58;2.40;99.90
2487;DHT22;1254;49.144;8.212;2022-12-20T01:28:28;2.50;99.90
2487;DHT22;1254;49.144;8.212;2022-12-20T01:30:56;2.50;99.90
2487;DHT22;1254;49.144;8.212;2022-12-20T01:33:24;2.50;99.90
2487;DHT22;1254;49.144;8.212;2022-12-20T01:35:56;2.50;99.90
2487;DHT22;1254;49.144;8.212;2022-12-20T01:38:25;2.50;99.90
2487;DHT22;1254;49.144;8.212;2022-12-20T01:40:54;2.60;99.90
2487;DHT22;1254;49.144;8.212;2022-12-20T01:43:24;2.50;99.90
2487;DHT22;1254;49.144;8.212;2022-12-20T01:45:54;2.50;99.90
2487;DHT22;1254;49.144;8.212;2022-12-20T01:48:24;2.50;99.90
2487;DHT22;1254;49.144;8.212;2022-12-20T01:50:53;2.50;99.90
2487;DHT22;1254;49.144;8.212;2022-12-20T01:53:22;2.40;99.90
2487;DHT22;1254;49.144;8.212;2022-12-20T01:55:51;2.40;99.90
2487;DHT22;1254;49.144;8.212;2022-12-20T01:58:20;2.40;99.90
2487;DHT22;1254;49.144;8.212;2022-12-20T02:00:48;2.40;99.90
2487;DHT22;1254;49.144;8.212;2022-12-20T02:03:18;2.40;99.90
2487;DHT22;1254;49.144;8.212;2022-12-20T02:05:46;2.30;99.90
2487;DHT22;1254;49.144;8.212;2022-12-20T02:08:16;2.30;99.90
2487;DHT22;1254;49.144;8.212;2022-12-20T02:11:00;2.40;99.90
2487;DHT22;1254;49.144;8.212;2022-12-20T02:13:42;2.30;99.90
2487;DHT22;1254;49.144;8.212;2022-12-20T02:16:20;2.30;99.90
2487;DHT22;1254;49.144;8.212;2022-12-20T02:18:54;2.40;99.90
2487;DHT22;1254;49.144;8.212;2022-12-20T02:21:29;2.40;99.90
2487;DHT22;1254;49.144;8.212;2022-12-20T02:24:31;2.40;99.90
2487;DHT22;1254;49.144;8.212;2022-12-20T02:30:15;2.30;99.90
2487;DHT22;1254;49.144;8.212;2022-12-20T02:32:49;2.30;99.90
2487;DHT22;1254;49.144;8.212;2022-12-20T02:35:21;2.30;99.90
2487;DHT22;1254;49.144;8.212;2022-12-20T02:37:51;2.30;99.90
2487;DHT22;1254;49.144;8.212;2022-12-20T02:40:22;2.30;99.90
2487;DHT22;1254;49.144;8.212;2022-12-20T02:42:55;2.30;99.90
2487;DHT22;1254;49.144;8.212;2022-12-20T02:45:27;2.30;99.90
2487;DHT22;1254;49.144;8.212;2022-12-20T02:47:58;2.30;99.90
2487;DHT22;1254;49.144;8.212;2022-12-20T02:50:33;2.30;99.90
2487;DHT22;1254;49.144;8.212;2022-12-20T02:53:03;2.30;99.90
2487;DHT22;1254;49.144;8.212;2022-12-20T02:55:40;2.30;99.90
2487;DHT22;1254;49.144;8.212;2022-12-20T02:58:12;2.20;99.90
2487;DHT22;1254;49.144;8.212;2022-12-20T03:00:45;2.30;99.90
2487;DHT22;1254;49.144;8.212;2022-12-20T03:03:15;2.20;99.90
2487;DHT22;1254;49.144;8.212;2022-12-20T03:05:52;2.20;99.90
2487;DHT22;1254;49.144;8.212;2022-12-20T03:08:22;2.10;99.90
2487;DHT22;1254;49.144;8.212;2022-12-20T03:10:51;2.10;99.90
2487;DHT22;1254;49.144;8.212;2022-12-20T03:13:20;2.10;99.90
2487;DHT22;1254;49.144;8.212;2022-12-20T03:15:56;2.00;99.90
2487;DHT22;1254;49.144;8.212;2022-12-20T03:18:24;2.00;99.90
2487;DHT22;1254;49.144;8.212;2022-12-20T03:20:53;2.00;99.90
2487;DHT22;1254;49.144;8.212;2022-12-20T03:23:21;2.00;99.90
2487;DHT22;1254;49.144;8.212;2022-12-20T03:25:48;1.90;99.90
2487;DHT22;1254;49.144;8.212;2022-12-20T03:28:26;1.90;99.90
2487;DHT22;1254;49.144;8.212;2022-12-20T03:30:57;1.90;99.90
2487;DHT22;1254;49.144;8.212;2022-12-20T03:33:25;1.90;99.90
2487;DHT22;1254;49.144;8.212;2022-12-20T03:35:54;1.80;99.90
2487;DHT22;1254;49.144;8.212;2022-12-20T03:38:22;1.80;99.90
2487;DHT22;1254;49.144;8.212;2022-12-20T03:40:50;1.80;99.90
2487;DHT22;1254;49.144;8.212;2022-12-20T03:43:21;1.80;99.90
2487;DHT22;1254;49.144;8.212;2022-12-20T03:45:48;1.80;99.90
2487;DHT22;1254;49.144;8.212;2022-12-20T03:48:19;1.80;99.90
2487;DHT22;1254;49.144;8.212;2022-12-20T03:50:48;1.80;99.90
2487;DHT22;1254;49.144;8.212;2022-12-20T03:53:15;1.80;99.90
2487;DHT22;1254;49.144;8.212;2022-12-20T03:55:44;1.80;99.90
2487;DHT22;1254;49.144;8.212;2022-12-20T03:58:12;1.80;99.90
2487;DHT22;1254;49.144;8.212;2022-12-20T04:00:40;1.70;99.90
2487;DHT22;1254;49.144;8.212;2022-12-20T04:03:35;1.70;99.90
2487;DHT22;1254;49.144;8.212;2022-12-20T04:06:04;1.80;99.90
2487;DHT22;1254;49.144;8.212;2022-12-20T04:08:32;1.80;99.90
2487;DHT22;1254;49.144;8.212;2022-12-20T04:11:00;1.80;99.90
2487;DHT22;1254;49.144;8.212;2022-12-20T04:13:49;1.80;99.90
2487;DHT22;1254;49.144;8.212;2022-12-20T04:16:19;1.80;99.90
2487;DHT22;1254;49.144;8.212;2022-12-20T04:18:49;1.80;99.90
2487;DHT22;1254;49.144;8.212;2022-12-20T04:21:22;1.80;99.90
2487;DHT22;1254;49.144;8.212;2022-12-20T04:23:52;1.80;99.90
2487;DHT22;1254;49.144;8.212;2022-12-20T04:26:22;1.90;99.90
2487;DHT22;1254;49.144;8.212;2022-12-20T04:28:50;1.90;99.90
2487;DHT22;1254;49.144;8.212;2022-12-20T04:31:18;1.90;99.90
2487;DHT22;1254;49.144;8.212;2022-12-20T04:33:48;1.90;99.90
2487;DHT22;1254;49.144;8.212;2022-12-20T04:36:16;1.90;99.90
2487;DHT22;1254;49.144;8.212;2022-12-20T04:38:44;1.90;99.90
2487;DHT22;1254;49.144;8.212;2022-12-20T04:41:12;1.90;99.90
2487;DHT22;1254;49.144;8.212;2022-12-20T04:43:51;1.90;99.90
2487;DHT22;1254;49.144;8.212;2022-12-20T04:46:22;1.90;99.90
2487;DHT22;1254;49.144;8.212;2022-12-20T04:48:52;1.80;99.90
2487;DHT22;1254;49.144;8.212;2022-12-20T04:51:20;1.80;99.90
2487;DHT22;1254;49.144;8.212;2022-12-20T04:53:48;1.80;99.90
2487;DHT22;1254;49.144;8.212;2022-12-20T04:56:27;1.70;99.90
2487;DHT22;1254;49.144;8.212;2022-12-20T04:59:02;1.70;99.90
2487;DHT22;1254;49.144;8.212;2022-12-20T05:01:32;1.60;99.90
2487;DHT22;1254;49.144;8.212;2022-12-20T05:04:02;1.60;99.90
2487;DHT22;1254;49.144;8.212;2022-12-20T05:06:33;1.70;99.90
2487;DHT22;1254;49.144;8.212;2022-12-20T05:09:01;1.80;99.90
2487;DHT22;1254;49.144;8.212;2022-12-20T05:11:30;1.90;99.90
2487;DHT22;1254;49.144;8.212;2022-12-20T05:13:58;1.90;99.90
2487;DHT22;1254;49.144;8.212;2022-12-20T05:16:26;2.00;99.90
2487;DHT22;1254;49.144;8.212;2022-12-20T05:18:55;2.00;99.90
2487;DHT22;1254;49.144;8.212;2022-12-20T05:21:24;2.10;99.90
2487;DHT22;1254;49.144;8.212;2022-12-20T05:24:10;2.10;99.90
2487;DHT22;1254;49.144;8.212;2022-12-20T05:27:08;2.20;99.90
2487;DHT22;1254;49.144;8.212;2022-12-20T05:29:36;2.20;99.90
2487;DHT22;1254;49.144;8.212;2022-12-20T05:32:05;2.20;99.90
2487;DHT22;1254;49.144;8.212;2022-12-20T05:34:38;2.30;99.90
2487;DHT22;1254;49.144;8.212;2022-12-20T05:37:08;2.20;99.90
2487;DHT22;1254;49.144;8.212;2022-12-20T05:39:38;2.20;99.90
2487;DHT22;1254;49.144;8.212;2022-12-20T05:42:11;2.30;99.90
2487;DHT22;1254;49.144;8.212;2022-12-20T05:44:39;2.30;99.90
2487;DHT22;1254;49.144;8.212;2022-12-20T05:47:07;2.30;99.90
2487;DHT22;1254;49.144;8.212;2022-12-20T05:49:36;2.30;99.90
2487;DHT22;1254;49.144;8.212;2022-12-20T05:52:09;2.20;99.90
2487;DHT22;1254;49.144;8.212;2022-12-20T05:54:39;2.20;99.90
2487;DHT22;1254;49.144;8.212;2022-12-20T05:57:16;2.20;99.90
2487;DHT22;1254;49.144;8.212;2022-12-20T05:59:44;2.20;99.90
2487;DHT22;1254;49.144;8.212;2022-12-20T06:02:16;2.20;99.90
2487;DHT22;1254;49.144;8.212;2022-12-20T06:04:46;2.20;99.90
2487;DHT22;1254;49.144;8.212;2022-12-20T06:07:18;2.20;99.90
2487;DHT22;1254;49.144;8.212;2022-12-20T06:09:50;2.30;99.90
2487;DHT22;1254;49.144;8.212;2022-12-20T06:12:20;2.30;99.90
2487;DHT22;1254;49.144;8.212;2022-12-20T06:14:49;2.40;99.90
2487;DHT22;1254;49.144;8.212;2022-12-20T06:17:17;2.40;99.90
2487;DHT22;1254;49.144;8.212;2022-12-20T06:19:45;2.40;99.90
2487;DHT22;1254;49.144;8.212;2022-12-20T06:22:17;2.40;99.90
2487;DHT22;1254;49.144;8.212;2022-12-20T06:24:49;2.40;99.90
2487;DHT22;1254;49.144;8.212;2022-12-20T06:27:21;2.40;99.90
2487;DHT22;1254;49.144;8.212;2022-12-20T06:29:57;2.40;99.90
2487;DHT22;1254;49.144;8.212;2022-12-20T06:32:30;2.40;99.90
2487;DHT22;1254;49.144;8.212;2022-12-20T06:34:58;2.40;99.90
2487;DHT22;1254;49.144;8.212;2022-12-20T06:37:27;2.40;99.90
2487;DHT22;1254;49.144;8.212;2022-12-20T06:39:55;2.50;99.90
2487;DHT22;1254;49.144;8.212;2022-12-20T06:42:24;2.50;99.90
2487;DHT22;1254;49.144;8.212;2022-12-20T06:44:52;2.50;99.90
2487;DHT22;1254;49.144;8.212;2022-12-20T06:47:20;2.60;99.90
2487;DHT22;1254;49.144;8.212;2022-12-20T06:49:50;2.60;99.90
2487;DHT22;1254;49.144;8.212;2022-12-20T06:52:22;2.70;99.90
2487;DHT22;1254;49.144;8.212;2022-12-20T06:54:55;2.70;99.90
2487;DHT22;1254;49.144;8.212;2022-12-20T06:57:23;2.70;99.90
2487;DHT22;1254;49.144;8.212;2022-12-20T06:59:52;2.70;99.90
2487;DHT22;1254;49.144;8.212;2022-12-20T07:02:20;2.80;99.90
2487;DHT22;1254;49.144;8.212;2022-12-20T07:04:48;2.90;99.90
2487;DHT22;1254;49.144;8.212;2022-12-20T07:07:16;2.90;99.90
2487;DHT22;1254;49.144;8.212;2022-12-20T07:09:44;2.80;99.90
2487;DHT22;1254;49.144;8.212;2022-12-20T07:12:13;2.80;99.90
2487;DHT22;1254;49.144;8.212;2022-12-20T07:14:41;2.80;99.90
2487;DHT22;1254;49.144;8.212;2022-12-20T07:17:10;2.90;99.90
2487;DHT22;1254;49.144;8.212;2022-12-20T07:19:38;3.00;99.90
2487;DHT22;1254;49.144;8.212;2022-12-20T07:22:06;2.90;99.90
2487;DHT22;1254;49.144;8.212;2022-12-20T07:24:33;3.00;99.90
2487;DHT22;1254;49.144;8.212;2022-12-20T07:27:01;3.00;99.90
2487;DHT22;1254;49.144;8.212;2022-12-20T07:29:31;3.10;99.90
2487;DHT22;1254;49.144;8.212;2022-12-20T07:31:59;3.20;99.90
2487;DHT22;1254;49.144;8.212;2022-12-20T07:34:26;3.20;99.90
2487;DHT22;1254;49.144;8.212;2022-12-20T07:36:54;3.30;99.90
2487;DHT22;1254;49.144;8.212;2022-12-20T07:39:22;3.30;99.90
2487;DHT22;1254;49.144;8.212;2022-12-20T07:41:53;3.30;99.90
2487;DHT22;1254;49.144;8.212;2022-12-20T07:44:22;3.30;99.90
2487;DHT22;1254;49.144;8.212;2022-12-20T07:46:52;3.30;99.90
2487;DHT22;1254;49.144;8.212;2022-12-20T07:49:20;3.30;99.90
2487;DHT22;1254;49.144;8.212;2022-12-20T07:51:50;3.40;99.90
2487;DHT22;1254;49.144;8.212;2022-12-20T07:54:23;3.40;99.90
2487;DHT22;1254;49.144;8.212;2022-12-20T07:56:53;3.40;99.90
2487;DHT22;1254;49.144;8.212;2022-12-20T07:59:30;3.50;99.90
2487;DHT22;1254;49.144;8.212;2022-12-20T08:02:02;3.50;99.90
2487;DHT22;1254;49.144;8.212;2022-12-20T08:04:31;3.50;99.90
2487;DHT22;1254;49.144;8.212;2022-12-20T08:07:00;3.50;99.90
2487;DHT22;1254;49.144;8.212;2022-12-20T08:09:32;3.50;99.90
2487;DHT22;1254;49.144;8.212;2022-12-20T08:12:01;3.50;99.90
2487;DHT22;1254;49.144;8.212;2022-12-20T08:14:29;3.50;99.90
2487;DHT22;1254;49.144;8.212;2022-12-20T08:16:58;3.60;99.90
2487;DHT22;1254;49.144;8.212;2022-12-20T08:19:27;3.60;99.90
2487;DHT22;1254;49.144;8.212;2022-12-20T08:21:55;3.60;99.90
2487;DHT22;1254;49.144;8.212;2022-12-20T08:24:23;3.60;99.90
2487;DHT22;1254;49.144;8.212;2022-12-20T08:26:51;3.70;99.90
2487;DHT22;1254;49.144;8.212;2022-12-20T08:29:19;3.70;99.90
2487;DHT22;1254;49.144;8.212;2022-12-20T08:31:47;3.70;99.90
2487;DHT22;1254;49.144;8.212;2022-12-20T08:34:15;3.70;99.90
2487;DHT22;1254;49.144;8.212;2022-12-20T08:36:45;3.70;99.90
2487;DHT22;1254;49.144;8.212;2022-12-20T08:39:13;3.80;99.90
2487;DHT22;1254;49.144;8.212;2022-12-20T08:41:40;3.80;99.90
2487;DHT22;1254;49.144;8.212;2022-12-20T08:44:09;3.80;99.90
2487;DHT22;1254;49.144;8.212;2022-12-20T08:46:37;3.80;99.90
2487;DHT22;1254;49.144;8.212;2022-12-20T08:49:05;3.80;99.90
2487;DHT22;1254;49.144;8.212;2022-12-20T08:51:33;3.80;99.90
2487;DHT22;1254;49.144;8.212;2022-12-20T08:54:02;3.90;99.90
2487;DHT22;1254;49.144;8.212;2022-12-20T08:56:30;4.00;99.90
2487;DHT22;1254;49.144;8.212;2022-12-20T08:58:58;4.10;99.90
2487;DHT22;1254;49.144;8.212;2022-12-20T09:01:26;4.20;99.90
2487;DHT22;1254;49.144;8.212;2022-12-20T09:03:59;4.20;99.90
2487;DHT22;1254;49.144;8.212;2022-12-20T09:06:27;4.20;99.90
2487;DHT22;1254;49.144;8.212;2022-12-20T09:08:55;4.20;99.90
2487;DHT22;1254;49.144;8.212;2022-12-20T09:11:25;4.30;99.90
2487;DHT22;1254;49.144;8.212;2022-12-20T09:13:54;4.40;99.90
2487;DHT22;1254;49.144;8.212;2022-12-20T09:16:25;4.40;99.90
2487;DHT22;1254;49.144;8.212;2022-12-20T09:18:55;4.50;99.90
2487;DHT22;1254;49.144;8.212;2022-12-20T09:21:23;4.60;99.90
2487;DHT22;1254;49.144;8.212;2022-12-20T09:23:52;4.70;99.90
2487;DHT22;1254;49.144;8.212;2022-12-20T09:26:21;4.70;99.90
2487;DHT22;1254;49.144;8.212;2022-12-20T09:28:51;4.60;99.90
2487;DHT22;1254;49.144;8.212;2022-12-20T09:31:21;4.60;99.90
2487;DHT22;1254;49.144;8.212;2022-12-20T09:33:52;4.70;99.90
2487;DHT22;1254;49.144;8.212;2022-12-20T09:36:22;4.70;99.90
2487;DHT22;1254;49.144;8.212;2022-12-20T09:38:50;4.90;99.90
2487;DHT22;1254;49.144;8.212;2022-12-20T09:41:24;4.90;99.90
2487;DHT22;1254;49.144;8.212;2022-12-20T09:43:54;5.00;99.90
2487;DHT22;1254;49.144;8.212;2022-12-20T09:46:22;5.00;99.90
2487;DHT22;1254;49.144;8.212;2022-12-20T09:48:51;5.10;99.90
2487;DHT22;1254;49.144;8.212;2022-12-20T09:51:31;5.20;99.90
2487;DHT22;1254;49.144;8.212;2022-12-20T09:54:13;5.30;99.90
2487;DHT22;1254;49.144;8.212;2022-12-20T09:56:46;5.40;99.90
2487;DHT22;1254;49.144;8.212;2022-12-20T09:59:19;5.50;99.90
2487;DHT22;1254;49.144;8.212;2022-12-20T10:01:48;5.50;99.90
2487;DHT22;1254;49.144;8.212;2022-12-20T10:04:20;5.60;99.90
2487;DHT22;1254;49.144;8.212;2022-12-20T10:06:57;5.70;99.90
2487;DHT22;1254;49.144;8.212;2022-12-20T10:09:40;5.70;99.90
2487;DHT22;1254;49.144;8.212;2022-12-20T10:12:17;5.60;99.90
2487;DHT22;1254;49.144;8.212;2022-12-20T10:15:00;5.60;99.90
2487;DHT22;1254;49.144;8.212;2022-12-20T10:17:38;5.70;99.90
2487;DHT22;1254;49.144;8.212;2022-12-20T10:20:18;5.70;99.90
2487;DHT22;1254;49.144;8.212;2022-12-20T10:22:53;5.70;99.90
2487;DHT22;1254;49.144;8.212;2022-12-20T10:25:27;5.70;99.90
2487;DHT22;1254;49.144;8.212;2022-12-20T10:28:00;5.60;99.90
2487;DHT22;1254;49.144;8.212;2022-12-20T10:30:32;5.60;99.90
2487;DHT22;1254;49.144;8.212;2022-12-20T10:33:01;5.70;99.90
2487;DHT22;1254;49.144;8.212;2022-12-20T10:35:32;5.70;99.90
2487;DHT22;1254;49.144;8.212;2022-12-20T10:38:02;5.80;99.90
2487;DHT22;1254;49.144;8.212;2022-12-20T10:40:32;5.90;99.90
2487;DHT22;1254;49.144;8.212;2022-12-20T10:43:02;5.80;99.90
2487;DHT22;1254;49.144;8.212;2022-12-20T10:45:34;5.90;99.90
2487;DHT22;1254;49.144;8.212;2022-12-20T10:48:04;5.90;99.90
2487;DHT22;1254;49.144;8.212;2022-12-20T10:50:33;5.80;99.90
2487;DHT22;1254;49.144;8.212;2022-12-20T10:53:18;5.80;99.90
2487;DHT22;1254;49.144;8.212;2022-12-20T10:55:47;5.90;99.90
2487;DHT22;1254;49.144;8.212;2022-12-20T10:58:18;5.90;99.90
2487;DHT22;1254;49.144;8.212;2022-12-20T11:00:49;5.90;99.90
2487;DHT22;1254;49.144;8.212;2022-12-20T11:03:18;5.90;99.90
2487;DHT22;1254;49.144;8.212;2022-12-20T11:05:58;5.90;99.90
2487;DHT22;1254;49.144;8.212;2022-12-20T11:08:29;5.90;99.90
2487;DHT22;1254;49.144;8.212;2022-12-20T11:11:11;6.00;99.90
2487;DHT22;1254;49.144;8.212;2022-12-20T11:13:39;6.10;99.90
2487;DHT22;1254;49.144;8.212;2022-12-20T11:16:28;6.10;99.90
2487;DHT22;1254;49.144;8.212;2022-12-20T11:19:09;6.10;99.90
2487;DHT22;1254;49.144;8.212;2022-12-20T11:21:46;6.00;99.90
2487;DHT22;1254;49.144;8.212;2022-12-20T11:24:24;6.00;99.90
2487;DHT22;1254;49.144;8.212;2022-12-20T11:27:12;6.00;99.90
2487;DHT22;1254;49.144;8.212;2022-12-20T11:30:02;6.10;99.90
2487;DHT22;1254;49.144;8.212;2022-12-20T11:32:53;6.20;99.90
2487;DHT22;1254;49.144;8.212;2022-12-20T11:35:32;6.20;99.90
2487;DHT22;1254;49.144;8.212;2022-12-20T11:38:09;6.30;99.90
2487;DHT22;1254;49.144;8.212;2022-12-20T11:40:45;6.20;99.90
2487;DHT22;1254;49.144;8.212;2022-12-20T11:43:36;6.20;99.90
2487;DHT22;1254;49.144;8.212;2022-12-20T11:46:23;6.20;99.90
2487;DHT22;1254;49.144;8.212;2022-12-20T11:49:21;6.20;99.90
2487;DHT22;1254;49.144;8.212;2022-12-20T11:52:02;6.20;99.90
2487;DHT22;1254;49.144;8.212;2022-12-20T11:54:37;6.30;99.90
2487;DHT22;1254;49.144;8.212;2022-12-20T11:57:14;6.30;99.90
2487;DHT22;1254;49.144;8.212;2022-12-20T11:59:47;6.30;99.90
2487;DHT22;1254;49.144;8.212;2022-12-20T12:02:22;6.30;99.90
2487;DHT22;1254;49.144;8.212;2022-12-20T12:04:57;6.40;99.90
2487;DHT22;1254;49.144;8.212;2022-12-20T12:07:30;6.30;99.90
2487;DHT22;1254;49.144;8.212;2022-12-20T12:10:00;6.30;99.90
2487;DHT22;1254;49.144;8.212;2022-12-20T12:12:32;6.30;99.90
2487;DHT22;1254;49.144;8.212;2022-12-20T12:15:05;6.30;99.90
2487;DHT22;1254;49.144;8.212;2022-12-20T12:17:45;6.30;99.90
2487;DHT22;1254;49.144;8.212;2022-12-20T12:20:27;6.30;99.90
2487;DHT22;1254;49.144;8.212;2022-12-20T12:23:02;6.30;99.90
2487;DHT22;1254;49.144;8.212;2022-12-20T12:25:32;6.30;99.90
2487;DHT22;1254;49.144;8.212;2022-12-20T12:28:00;6.30;99.90
2487;DHT22;1254;49.144;8.212;2022-12-20T12:30:35;6.30;99.90
2487;DHT22;1254;49.144;8.212;2022-12-20T12:33:09;6.30;99.90
2487;DHT22;1254;49.144;8.212;2022-12-20T12:36:17;6.40;99.90
2487;DHT22;1254;49.144;8.212;2022-12-20T12:39:05;6.50;99.90
2487;DHT22;1254;49.144;8.212;2022-12-20T12:42:04;6.50;99.90
2487;DHT22;1254;49.144;8.212;2022-12-20T12:44:42;6.50;99.90
2487;DHT22;1254;49.144;8.212;2022-12-20T12:47:17;6.60;99.90
2487;DHT22;1254;49.144;8.212;2022-12-20T12:49:48;6.50;99.90
2487;DHT22;1254;49.144;8.212;2022-12-20T12:52:41;6.60;99.90
2487;DHT22;1254;49.144;8.212;2022-12-20T12:55:36;6.60;99.90
2487;DHT22;1254;49.144;8.212;2022-12-20T12:58:31;6.70;99.90
2487;DHT22;1254;49.144;8.212;2022-12-20T13:01:02;6.70;99.90
2487;DHT22;1254;49.144;8.212;2022-12-20T13:03:40;6.70;99.90
2487;DHT22;1254;49.144;8.212;2022-12-20T13:09:21;6.80;99.90
2487;DHT22;1254;49.144;8.212;2022-12-20T13:14:59;6.80;99.90
2487;DHT22;1254;49.144;8.212;2022-12-20T13:17:49;6.70;99.90
2487;DHT22;1254;49.144;8.212;2022-12-20T13:20:19;6.60;99.90
2487;DHT22;1254;49.144;8.212;2022-12-20T13:23:13;6.70;99.90
2487;DHT22;1254;49.144;8.212;2022-12-20T13:25:46;6.70;99.90
2487;DHT22;1254;49.144;8.212;2022-12-20T13:28:42;6.60;99.90
2487;DHT22;1254;49.144;8.212;2022-12-20T13:31:30;6.70;99.90
2487;DHT22;1254;49.144;8.212;2022-12-20T13:34:00;6.70;99.90
2487;DHT22;1254;49.144;8.212;2022-12-20T13:36:34;6.70;99.90
2487;DHT22;1254;49.144;8.212;2022-12-20T13:39:30;6.80;99.90
2487;DHT22;1254;49.144;8.212;2022-12-20T13:42:29;6.90;99.90
2487;DHT22;1254;49.144;8.212;2022-12-20T13:45:02;6.80;99.90
2487;DHT22;1254;49.144;8.212;2022-12-20T13:47:37;6.80;99.90
2487;DHT22;1254;49.144;8.212;2022-12-20T13:50:26;6.80;99.90
2487;DHT22;1254;49.144;8.212;2022-12-20T13:52:54;6.70;99.90
2487;DHT22;1254;49.144;8.212;2022-12-20T13:55:30;6.70;99.90
2487;DHT22;1254;49.144;8.212;2022-12-20T13:58:14;6.70;99.90
2487;DHT22;1254;49.144;8.212;2022-12-20T14:00:43;6.70;99.90
2487;DHT22;1254;49.144;8.212;2022-12-20T14:03:22;6.70;99.90
2487;DHT22;1254;49.144;8.212;2022-12-20T14:05:55;6.60;99.90
2487;DHT22;1254;49.144;8.212;2022-12-20T14:08:26;6.60;99.90
2487;DHT22;1254;49.144;8.212;2022-12-20T14:11:06;6.60;99.90
2487;DHT22;1254;49.144;8.212;2022-12-20T14:13:36;6.50;99.90
2487;DHT22;1254;49.144;8.212;2022-12-20T14:16:09;6.50;99.90
2487;DHT22;1254;49.144;8.212;2022-12-20T14:18:37;6.50;99.90
2487;DHT22;1254;49.144;8.212;2022-12-20T14:21:07;6.50;99.90
2487;DHT22;1254;49.144;8.212;2022-12-20T14:23:38;6.50;99.90
2487;DHT22;1254;49.144;8.212;2022-12-20T14:26:10;6.60;99.90
2487;DHT22;1254;49.144;8.212;2022-12-20T14:28:43;6.50;99.90
2487;DHT22;1254;49.144;8.212;2022-12-20T14:31:23;6.50;99.90
2487;DHT22;1254;49.144;8.212;2022-12-20T14:34:00;6.50;99.90
2487;DHT22;1254;49.144;8.212;2022-12-20T14:36:29;6.50;99.90
2487;DHT22;1254;49.144;8.212;2022-12-20T14:38:57;6.50;99.90
2487;DHT22;1254;49.144;8.212;2022-12-20T14:41:30;6.50;99.90
2487;DHT22;1254;49.144;8.212;2022-12-20T14:44:02;6.50;99.90
2487;DHT22;1254;49.144;8.212;2022-12-20T14:46:30;6.50;99.90
2487;DHT22;1254;49.144;8.212;2022-12-20T14:49:22;6.40;99.90
2487;DHT22;1254;49.144;8.212;2022-12-20T14:51:53;6.40;99.90
2487;DHT22;1254;49.144;8.212;2022-12-20T14:54:32;6.40;99.90
2487;DHT22;1254;49.144;8.212;2022-12-20T14:57:01;6.40;99.90
2487;DHT22;1254;49.144;8.212;2022-12-20T14:59:31;6.40;99.90
2487;DHT22;1254;49.144;8.212;2022-12-20T15:02:38;6.40;99.90
2487;DHT22;1254;49.144;8.212;2022-12-20T15:05:34;6.30;99.90
2487;DHT22;1254;49.144;8.212;2022-12-20T15:08:11;6.30;99.90
2487;DHT22;1254;49.144;8.212;2022-12-20T15:10:40;6.30;99.90
2487;DHT22;1254;49.144;8.212;2022-12-20T15:13:11;6.30;99.90
2487;DHT22;1254;49.144;8.212;2022-12-20T15:15:41;6.30;99.90
2487;DHT22;1254;49.144;8.212;2022-12-20T15:18:14;6.30;99.90
2487;DHT22;1254;49.144;8.212;2022-12-20T15:20:44;6.40;99.90
2487;DHT22;1254;49.144;8.212;2022-12-20T15:23:14;6.30;99.90
2487;DHT22;1254;49.144;8.212;2022-12-20T15:25:43;6.30;99.90
2487;DHT22;1254;49.144;8.212;2022-12-20T15:28:13;6.20;99.90
2487;DHT22;1254;49.144;8.212;2022-12-20T15:30:41;6.20;99.90
2487;DHT22;1254;49.144;8.212;2022-12-20T15:33:15;6.20;99.90
2487;DHT22;1254;49.144;8.212;2022-12-20T15:35:44;6.20;99.90
2487;DHT22;1254;49.144;8.212;2022-12-20T15:38:16;6.20;99.90
2487;DHT22;1254;49.144;8.212;2022-12-20T15:40:46;6.20;99.90
2487;DHT22;1254;49.144;8.212;2022-12-20T15:43:15;6.20;99.90
2487;DHT22;1254;49.144;8.212;2022-12-20T15:45:46;6.10;99.90
2487;DHT22;1254;49.144;8.212;2022-12-20T15:48:17;6.10;99.90
2487;DHT22;1254;49.144;8.212;2022-12-20T15:50:51;6.10;99.90
2487;DHT22;1254;49.144;8.212;2022-12-20T15:53:23;6.10;99.90
2487;DHT22;1254;49.144;8.212;2022-12-20T15:55:54;6.10;99.90
2487;DHT22;1254;49.144;8.212;2022-12-20T15:58:23;6.10;99.90
2487;DHT22;1254;49.144;8.212;2022-12-20T16:00:53;6.10;99.90
2487;DHT22;1254;49.144;8.212;2022-12-20T16:03:26;6.10;99.90
2487;DHT22;1254;49.144;8.212;2022-12-20T16:05:56;6.10;99.90
2487;DHT22;1254;49.144;8.212;2022-12-20T16:08:24;6.20;99.90
2487;DHT22;1254;49.144;8.212;2022-12-20T16:10:52;6.10;99.90
2487;DHT22;1254;49.144;8.212;2022-12-20T16:13:22;6.20;99.90
2487;DHT22;1254;49.144;8.212;2022-12-20T16:15:51;6.10;99.90
2487;DHT22;1254;49.144;8.212;2022-12-20T16:18:20;6.10;99.90
2487;DHT22;1254;49.144;8.212;2022-12-20T16:20:49;6.20;99.90
2487;DHT22;1254;49.144;8.212;2022-12-20T16:23:19;6.10;99.90
2487;DHT22;1254;49.144;8.212;2022-12-20T16:25:48;6.10;99.90
2487;DHT22;1254;49.144;8.212;2022-12-20T16:28:17;6.10;99.90
2487;DHT22;1254;49.144;8.212;2022-12-20T16:30:45;6.10;99.90
2487;DHT22;1254;49.144;8.212;2022-12-20T16:33:18;6.00;99.90
2487;DHT22;1254;49.144;8.212;2022-12-20T16:35:48;6.10;99.90
2487;DHT22;1254;49.144;8.212;2022-12-20T16:38:16;6.10;99.90
2487;DHT22;1254;49.144;8.212;2022-12-20T16:40:44;6.10;99.90
2487;DHT22;1254;49.144;8.212;2022-12-20T16:43:13;6.10;99.90
2487;DHT22;1254;49.144;8.212;2022-12-20T16:45:42;6.10;99.90
2487;DHT22;1254;49.144;8.212;2022-12-20T16:48:10;6.10;99.90
2487;DHT22;1254;49.144;8.212;2022-12-20T16:50:38;6.00;99.90
2487;DHT22;1254;49.144;8.212;2022-12-20T16:53:12;6.00;99.90
2487;DHT22;1254;49.144;8.212;2022-12-20T16:55:41;6.00;99.90
2487;DHT22;1254;49.144;8.212;2022-12-20T16:58:09;6.00;99.90
2487;DHT22;1254;49.144;8.212;2022-12-20T17:00:38;6.00;99.90